createdAt,value
2023-04-28T00:00:44.927Z,519.6
2023-04-28T00:01:46.882Z,519.8
2023-04-28T00:02:49.353Z,519.6
2023-04-28T00:03:52.120Z,520
2023-04-28T00:04:55.002Z,520.1
2023-04-28T00:05:57.280Z,520
2023-04-28T00:06:59.218Z,519.8
2023-04-28T00:08:00.949Z,520
2023-04-28T00:09:02.798Z,520
2023-04-28T00:10:04.775Z,519.3
2023-04-28T00:11:06.720Z,519.7
2023-04-28T00:12:08.578Z,519.6
2023-04-28T00:13:10.514Z,519.5
2023-04-28T00:14:12.358Z,519.5
2023-04-28T00:15:14.225Z,519.9
2023-04-28T00:16:16.292Z,519.6
2023-04-28T00:17:18.328Z,519.9
2023-04-28T00:18:20.492Z,519.7
2023-04-28T00:19:22.322Z,519.5
2023-04-28T00:20:24.193Z,519.7
2023-04-28T00:21:26.040Z,519.7
2023-04-28T00:22:27.792Z,519.4
2023-04-28T00:23:29.642Z,519.2
2023-04-28T00:24:31.381Z,519.4
2023-04-28T00:25:33.227Z,519.2
2023-04-28T00:26:35.068Z,519.5
2023-04-28T00:27:36.844Z,519.4
2023-04-28T00:28:38.674Z,519.4
2023-04-28T00:29:40.451Z,519.4
2023-04-28T00:30:42.277Z,519.5
2023-04-28T00:31:44.343Z,519.4
2023-04-28T00:32:46.722Z,519.1
2023-04-28T00:33:48.443Z,519.1
2023-04-28T00:34:50.376Z,519.2
2023-04-28T00:35:52.228Z,519.1
2023-04-28T00:36:53.985Z,519.3
2023-04-28T00:37:55.833Z,518.9
2023-04-28T00:38:57.602Z,519
2023-04-28T00:39:59.438Z,518.6
2023-04-28T00:41:01.264Z,518.9
2023-04-28T00:42:03.129Z,518.9
2023-04-28T00:43:05.020Z,518.6
2023-04-28T00:44:06.853Z,518.7
2023-04-28T00:45:08.776Z,519
2023-04-28T00:46:10.859Z,518.6
2023-04-28T00:47:12.873Z,518.9
2023-04-28T00:48:14.725Z,518.8
2023-04-28T00:49:16.633Z,518.6
2023-04-28T00:50:18.358Z,519
2023-04-28T00:51:20.083Z,519.1
2023-04-28T00:52:21.929Z,519.2
2023-04-28T00:53:23.776Z,519
2023-04-28T00:54:25.732Z,518.7
2023-04-28T00:55:27.488Z,518.7
2023-04-28T00:56:29.334Z,518.7
2023-04-28T00:57:31.176Z,518.5
2023-04-28T00:58:33.054Z,518.8
2023-04-28T00:59:34.900Z,518.9
2023-04-28T01:00:36.836Z,518.5
2023-04-28T01:01:39.351Z,518.3
2023-04-28T01:02:41.766Z,518.8
2023-04-28T01:03:44.521Z,518.6
2023-04-28T01:04:46.789Z,518.5
2023-04-28T01:05:48.742Z,518.3
2023-04-28T01:06:50.603Z,518
2023-04-28T01:07:52.442Z,518.3
2023-04-28T01:08:54.305Z,518
2023-04-28T01:09:56.175Z,518
2023-04-28T01:10:58.102Z,517.9
2023-04-28T01:11:59.972Z,517.5
2023-04-28T01:13:01.822Z,518
2023-04-28T01:14:03.752Z,517.6
2023-04-28T01:15:05.701Z,517.6
2023-04-28T01:16:07.760Z,517.4
2023-04-28T01:17:09.627Z,517.4
2023-04-28T01:18:11.741Z,517.6
2023-04-28T01:19:13.612Z,517.7
2023-04-28T01:20:15.636Z,517.6
2023-04-28T01:21:17.524Z,517.7
2023-04-28T01:22:19.400Z,517.6
2023-04-28T01:23:21.150Z,517.8
2023-04-28T01:24:22.989Z,517.5
2023-04-28T01:25:24.844Z,517.7
2023-04-28T01:26:26.688Z,517.5
2023-04-28T01:27:29.040Z,517.5
2023-04-28T01:28:30.995Z,517.3
2023-04-28T01:29:32.868Z,517.2
2023-04-28T01:30:34.713Z,517.1
2023-04-28T01:31:36.743Z,517.2
2023-04-28T01:32:38.594Z,516.9
2023-04-28T01:33:40.448Z,516.6
2023-04-28T01:34:42.305Z,516.9
2023-04-28T01:35:44.195Z,516.9
2023-04-28T01:36:46.203Z,517.2
2023-04-28T01:37:48.142Z,517.1
2023-04-28T01:38:49.998Z,517
2023-04-28T01:39:51.841Z,517.1
2023-04-28T01:40:53.702Z,517.1
2023-04-28T01:41:55.645Z,517
2023-04-28T01:42:57.411Z,517.2
2023-04-28T01:43:59.247Z,517
2023-04-28T01:45:01.121Z,517.2
2023-04-28T01:46:03.277Z,517.1
2023-04-28T01:47:05.206Z,517.2
2023-04-28T01:48:07.410Z,517
2023-04-28T01:49:09.305Z,517.2
2023-04-28T01:50:11.152Z,517.2
2023-04-28T01:51:13.034Z,517.2
2023-04-28T01:52:15.074Z,517.1
2023-04-28T01:53:17.030Z,517.3
2023-04-28T01:54:19.583Z,517.1
2023-04-28T01:55:21.349Z,517
2023-04-28T01:56:23.181Z,516.8
2023-04-28T01:57:25.239Z,517.1
2023-04-28T01:58:27.203Z,517.4
2023-04-28T01:59:29.069Z,517
2023-04-28T02:00:31.029Z,517.1
2023-04-28T02:01:32.959Z,516.9
2023-04-28T02:02:35.142Z,517.1
2023-04-28T02:03:37.806Z,517
2023-04-28T02:04:40.030Z,517
2023-04-28T02:05:41.880Z,516.8
2023-04-28T02:06:46.296Z,517
2023-04-28T02:07:48.150Z,517
2023-04-28T02:08:49.783Z,517.2
2023-04-28T02:09:51.644Z,516.9
2023-04-28T02:10:53.489Z,517
2023-04-28T02:11:55.346Z,516.9
2023-04-28T02:12:57.190Z,516.8
2023-04-28T02:13:59.162Z,516.8
2023-04-28T02:15:00.994Z,516.6
2023-04-28T02:16:03.194Z,516.6
2023-04-28T02:17:04.991Z,516.3
2023-04-28T02:18:06.952Z,516.7
2023-04-28T02:19:08.793Z,516.6
2023-04-28T02:20:13.486Z,516.2
2023-04-28T02:21:15.361Z,516.3
2023-04-28T02:22:17.217Z,516
2023-04-28T02:23:19.079Z,516.2
2023-04-28T02:24:20.928Z,515.7
2023-04-28T02:25:22.764Z,515.9
2023-04-28T02:26:24.628Z,515.7
2023-04-28T02:27:26.464Z,516
2023-04-28T02:28:28.309Z,515.8
2023-04-28T02:29:30.076Z,515.6
2023-04-28T02:30:32.023Z,515.5
2023-04-28T02:31:34.219Z,515.6
2023-04-28T02:32:36.530Z,515.5
2023-04-28T02:33:38.413Z,515.3
2023-04-28T02:34:40.241Z,515.5
2023-04-28T02:35:42.283Z,515.6
2023-04-28T02:36:44.162Z,515.4
2023-04-28T02:37:45.984Z,515.6
2023-04-28T02:38:47.832Z,515.3
2023-04-28T02:39:49.796Z,515.2
2023-04-28T02:40:51.740Z,515.1
2023-04-28T02:41:53.510Z,515.1
2023-04-28T02:42:55.445Z,515.1
2023-04-28T02:43:57.290Z,515.3
2023-04-28T02:44:59.036Z,515.3
2023-04-28T02:46:00.988Z,515.1
2023-04-28T02:47:03.230Z,515.1
2023-04-28T02:48:05.226Z,514.9
2023-04-28T02:49:07.165Z,514.7
2023-04-28T02:50:09.013Z,514.6
2023-04-28T02:51:10.951Z,514.2
2023-04-28T02:52:12.832Z,514.6
2023-04-28T02:53:14.680Z,514.4
2023-04-28T02:54:17.370Z,514.5
2023-04-28T02:55:19.392Z,514.5
2023-04-28T02:56:21.135Z,514.6
2023-04-28T02:57:22.997Z,514.4
2023-04-28T02:58:24.844Z,514.5
2023-04-28T02:59:26.689Z,514.5
2023-04-28T03:00:28.516Z,514.3
2023-04-28T03:01:30.524Z,514.3
2023-04-28T03:02:32.920Z,514.4
2023-04-28T03:03:35.512Z,514.3
2023-04-28T03:04:37.400Z,514.1
2023-04-28T03:05:39.260Z,513.8
2023-04-28T03:06:41.002Z,513.6
2023-04-28T03:07:42.725Z,513.8
2023-04-28T03:08:44.559Z,513.4
2023-04-28T03:09:46.407Z,512.8
2023-04-28T03:10:48.267Z,513
2023-04-28T03:11:50.217Z,513.2
2023-04-28T03:12:52.070Z,512.8
2023-04-28T03:13:53.799Z,513.2
2023-04-28T03:14:58.431Z,512.8
2023-04-28T03:16:00.495Z,512.8
2023-04-28T03:17:02.340Z,513.1
2023-04-28T03:18:04.552Z,513.1
2023-04-28T03:19:06.450Z,513.1
2023-04-28T03:20:08.396Z,513.2
2023-04-28T03:21:10.251Z,513.3
2023-04-28T03:22:12.207Z,512.8
2023-04-28T03:23:14.028Z,512.4
2023-04-28T03:24:17.018Z,512.7
2023-04-28T03:25:19.182Z,512
2023-04-28T03:26:20.925Z,512.1
2023-04-28T03:27:22.812Z,511.8
2023-04-28T03:28:24.622Z,511.8
2023-04-28T03:29:26.371Z,511.6
2023-04-28T03:30:28.326Z,511.6
2023-04-28T03:31:30.200Z,511.3
2023-04-28T03:32:32.253Z,511.3
2023-04-28T03:33:34.112Z,511.2
2023-04-28T03:34:35.920Z,510.9
2023-04-28T03:35:37.713Z,510.7
2023-04-28T03:36:39.517Z,510.6
2023-04-28T03:37:41.492Z,510.5
2023-04-28T03:38:43.335Z,510.4
2023-04-28T03:39:45.178Z,510.3
2023-04-28T03:40:47.130Z,510.4
2023-04-28T03:41:48.989Z,510.2
2023-04-28T03:42:50.836Z,510.2
2023-04-28T03:43:52.589Z,510.2
2023-04-28T03:44:54.633Z,509.9
2023-04-28T03:45:56.497Z,509.6
2023-04-28T03:46:58.346Z,509.9
2023-04-28T03:48:00.433Z,509.8
2023-04-28T03:49:02.387Z,509.5
2023-04-28T03:50:04.403Z,509.5
2023-04-28T03:51:06.150Z,509.1
2023-04-28T03:52:08.198Z,509.1
2023-04-28T03:53:09.868Z,509.3
2023-04-28T03:54:11.695Z,509.2
2023-04-28T03:55:13.659Z,508.4
2023-04-28T03:56:18.482Z,508.7
2023-04-28T03:57:20.314Z,508.6
2023-04-28T03:58:21.998Z,508.5
2023-04-28T03:59:23.823Z,508.2
2023-04-28T04:00:25.772Z,508
2023-04-28T04:01:28.650Z,507.8
2023-04-28T04:02:30.981Z,507.3
2023-04-28T04:03:33.969Z,507.5
2023-04-28T04:04:37.163Z,507.5
2023-04-28T04:05:39.345Z,507.3
2023-04-28T04:06:41.176Z,507.2
2023-04-28T04:07:42.923Z,506.9
2023-04-28T04:08:44.864Z,506.6
2023-04-28T04:09:46.725Z,506.5
2023-04-28T04:10:48.566Z,506.6
2023-04-28T04:11:53.397Z,506.6
2023-04-28T04:12:55.238Z,506.3
2023-04-28T04:13:57.205Z,505.8
2023-04-28T04:14:59.067Z,506.1
2023-04-28T04:16:01.179Z,505.8
2023-04-28T04:17:03.040Z,505.9
2023-04-28T04:18:04.999Z,505.7
2023-04-28T04:19:06.858Z,505.9
2023-04-28T04:20:08.719Z,505.8
2023-04-28T04:21:10.424Z,505.8
2023-04-28T04:22:12.294Z,505.8
2023-04-28T04:23:14.160Z,505.8
2023-04-28T04:24:17.158Z,505.5
2023-04-28T04:25:23.313Z,505.7
2023-04-28T04:26:25.239Z,505.3
2023-04-28T04:27:27.076Z,505.7
2023-04-28T04:28:28.912Z,505.1
2023-04-28T04:29:30.605Z,505.1
2023-04-28T04:30:32.657Z,505.1
2023-04-28T04:31:34.597Z,505
2023-04-28T04:32:36.657Z,504.7
2023-04-28T04:33:38.519Z,504.8
2023-04-28T04:34:40.434Z,504.8
2023-04-28T04:35:42.319Z,505.1
2023-04-28T04:36:44.234Z,504.8
2023-04-28T04:37:46.000Z,504.9
2023-04-28T04:38:47.842Z,504.7
2023-04-28T04:39:49.683Z,505
2023-04-28T04:40:51.532Z,504.9
2023-04-28T04:41:53.401Z,504.9
2023-04-28T04:42:55.243Z,504.8
2023-04-28T04:43:57.099Z,504.6
2023-04-28T04:44:59.031Z,504.8
2023-04-28T04:46:00.903Z,504.5
2023-04-28T04:47:02.942Z,504.4
2023-04-28T04:48:04.799Z,504.3
2023-04-28T04:49:06.660Z,504.3
2023-04-28T04:50:08.606Z,504.1
2023-04-28T04:51:10.369Z,504.1
2023-04-28T04:52:12.212Z,504.1
2023-04-28T04:53:17.130Z,503.7
2023-04-28T04:54:18.973Z,504.1
2023-04-28T04:55:20.931Z,503.7
2023-04-28T04:56:22.789Z,503.8
2023-04-28T04:57:24.514Z,503.5
2023-04-28T04:58:26.369Z,503.8
2023-04-28T04:59:28.437Z,503.4
2023-04-28T05:00:30.814Z,503.5
2023-04-28T05:01:33.025Z,503.2
2023-04-28T05:02:35.680Z,502.8
2023-04-28T05:03:38.528Z,502.9
2023-04-28T05:04:40.994Z,502.6
2023-04-28T05:05:46.693Z,502.8
2023-04-28T05:06:48.582Z,503
2023-04-28T05:07:50.387Z,502.7
2023-04-28T05:08:52.252Z,503
2023-04-28T05:09:54.043Z,502.9
2023-04-28T05:10:55.968Z,503.2
2023-04-28T05:11:57.806Z,503.2
2023-04-28T05:12:59.669Z,502.9
2023-04-28T05:14:01.499Z,502.9
2023-04-28T05:15:03.236Z,502.8
2023-04-28T05:16:05.228Z,502.6
2023-04-28T05:17:07.045Z,502.8
2023-04-28T05:18:09.229Z,502.6
2023-04-28T05:19:11.046Z,502.7
2023-04-28T05:20:13.617Z,502.6
2023-04-28T05:21:15.719Z,502.6
2023-04-28T05:22:17.817Z,502.4
2023-04-28T05:23:19.785Z,502.6
2023-04-28T05:24:21.552Z,502.8
2023-04-28T05:25:23.399Z,502.6
2023-04-28T05:26:25.963Z,502.6
2023-04-28T05:27:28.419Z,502.3
2023-04-28T05:28:32.959Z,502.9
2023-04-28T05:29:34.883Z,502.7
2023-04-28T05:30:36.804Z,502.8
2023-04-28T05:31:38.821Z,502.7
2023-04-28T05:32:40.750Z,502.9
2023-04-28T05:33:42.594Z,503.1
2023-04-28T05:34:44.456Z,502.8
2023-04-28T05:35:46.293Z,502.8
2023-04-28T05:36:48.356Z,503
2023-04-28T05:37:50.215Z,502.9
2023-04-28T05:38:52.057Z,503.1
2023-04-28T05:39:53.794Z,503.2
2023-04-28T05:40:55.623Z,503.2
2023-04-28T05:41:57.511Z,503.1
2023-04-28T05:42:59.355Z,503
2023-04-28T05:44:01.324Z,502.9
2023-04-28T05:45:03.258Z,502.9
2023-04-28T05:46:31.476Z,502.7
2023-04-28T05:47:33.504Z,502.7
2023-04-28T05:48:35.455Z,502.6
2023-04-28T05:49:37.409Z,502.7
2023-04-28T05:50:39.845Z,502.8
2023-04-28T05:51:41.782Z,503
2023-04-28T05:52:43.430Z,502.7
2023-04-28T05:53:45.686Z,502.7
2023-04-28T05:54:47.512Z,502.5
2023-04-28T05:55:49.298Z,502.9
2023-04-28T05:56:51.927Z,502.7
2023-04-28T05:57:54.331Z,502.6
2023-04-28T05:58:56.207Z,502.3
2023-04-28T05:59:57.950Z,503
2023-04-28T06:00:59.687Z,502.3
2023-04-28T06:02:01.873Z,502.7
2023-04-28T06:03:04.484Z,502.5
2023-04-28T06:04:08.034Z,502.8
2023-04-28T06:05:11.074Z,502.6
2023-04-28T06:06:13.731Z,502.9
2023-04-28T06:07:15.694Z,502.7
2023-04-28T06:08:17.795Z,502.6
2023-04-28T06:09:19.706Z,502.9
2023-04-28T06:10:21.505Z,503
2023-04-28T06:11:23.488Z,503
2023-04-28T06:12:25.556Z,503
2023-04-28T06:13:27.909Z,502.6
2023-04-28T06:14:29.970Z,502.7
2023-04-28T06:15:31.805Z,502.8
2023-04-28T06:16:34.047Z,502.8
2023-04-28T06:17:36.066Z,503
2023-04-28T06:18:37.878Z,503
2023-04-28T06:19:39.731Z,502.4
2023-04-28T06:20:41.578Z,502.7
2023-04-28T06:21:43.320Z,502.5
2023-04-28T06:22:45.107Z,502.3
2023-04-28T06:23:46.927Z,502.5
2023-04-28T06:24:48.914Z,502.2
2023-04-28T06:25:50.728Z,502.5
2023-04-28T06:26:52.477Z,502.1
2023-04-28T06:27:54.427Z,502
2023-04-28T06:28:56.294Z,502.1
2023-04-28T06:29:58.138Z,502.3
2023-04-28T06:31:00.334Z,502
2023-04-28T06:32:02.241Z,501.8
2023-04-28T06:33:04.617Z,501.6
2023-04-28T06:34:06.474Z,501.6
2023-04-28T06:35:08.295Z,501.7
2023-04-28T06:36:10.154Z,502
2023-04-28T06:37:12.000Z,501.8
2023-04-28T06:38:13.844Z,502.1
2023-04-28T06:39:15.698Z,501.9
2023-04-28T06:40:17.678Z,502.3
2023-04-28T06:41:19.573Z,502.4
2023-04-28T06:42:21.388Z,502.6
2023-04-28T06:43:23.150Z,502.5
2023-04-28T06:44:25.074Z,502.7
2023-04-28T06:45:26.912Z,502.5
2023-04-28T06:46:29.576Z,502.4
2023-04-28T06:47:32.097Z,502.8
2023-04-28T06:48:33.785Z,502.4
2023-04-28T06:49:35.649Z,502.4
2023-04-28T06:50:37.532Z,502.4
2023-04-28T06:51:39.248Z,502.9
2023-04-28T06:52:41.078Z,503
2023-04-28T06:53:43.047Z,503
2023-04-28T06:54:44.978Z,502.6
2023-04-28T06:55:46.777Z,502.7
2023-04-28T06:56:48.583Z,502.8
2023-04-28T06:57:50.305Z,502.7
2023-04-28T06:58:52.176Z,503.3
2023-04-28T06:59:54.133Z,502.9
2023-04-28T07:00:56.329Z,502.7
2023-04-28T07:01:58.863Z,502.8
2023-04-28T07:03:01.341Z,502.7
2023-04-28T07:04:04.651Z,502.4
2023-04-28T07:05:06.670Z,502.6
2023-04-28T07:06:08.725Z,502.7
2023-04-28T07:07:10.564Z,502.5
2023-04-28T07:08:13.741Z,502.7
2023-04-28T07:09:16.012Z,502.4
2023-04-28T07:10:17.881Z,502.5
2023-04-28T07:11:19.870Z,502.6
2023-04-28T07:12:21.867Z,502.4
2023-04-28T07:13:23.650Z,502.5
2023-04-28T07:14:25.887Z,502.2
2023-04-28T07:15:27.921Z,502.4
2023-04-28T07:16:30.124Z,502.8
2023-04-28T07:17:32.255Z,502.9
2023-04-28T07:18:34.096Z,503.3
2023-04-28T07:19:35.891Z,503.1
2023-04-28T07:20:37.899Z,502.9
2023-04-28T07:21:39.745Z,503.2
2023-04-28T07:22:41.587Z,502.6
2023-04-28T07:23:43.348Z,503.3
2023-04-28T07:24:45.093Z,503.1
2023-04-28T07:25:47.043Z,503.2
2023-04-28T07:26:49.558Z,503.1
2023-04-28T07:27:54.230Z,503.3
2023-04-28T07:28:56.083Z,503.2
2023-04-28T07:29:57.969Z,503.3
2023-04-28T07:31:00.205Z,503
2023-04-28T07:32:02.283Z,503.2
2023-04-28T07:33:04.442Z,503.1
2023-04-28T07:34:06.373Z,503.2
2023-04-28T07:35:08.614Z,503.2
2023-04-28T07:36:10.452Z,503.1
2023-04-28T07:37:12.484Z,503.2
2023-04-28T07:38:14.469Z,503.2
2023-04-28T07:39:16.416Z,503.6
2023-04-28T07:40:18.584Z,503.3
2023-04-28T07:41:20.507Z,503.3
2023-04-28T07:42:22.451Z,503.2
2023-04-28T07:43:24.336Z,503.3
2023-04-28T07:44:26.170Z,503.1
2023-04-28T07:45:27.925Z,503
2023-04-28T07:46:30.254Z,503.3
2023-04-28T07:47:32.290Z,502.9
2023-04-28T07:48:34.295Z,502.6
2023-04-28T07:49:36.042Z,502.9
2023-04-28T07:50:37.899Z,502.8
2023-04-28T07:51:39.753Z,502.6
2023-04-28T07:52:41.699Z,502.7
2023-04-28T07:53:43.445Z,503
2023-04-28T07:54:45.296Z,502.9
2023-04-28T07:55:47.341Z,503.3
2023-04-28T07:56:49.139Z,503.2
2023-04-28T07:57:51.176Z,503.1
2023-04-28T07:58:52.991Z,503.4
2023-04-28T07:59:54.760Z,503
2023-04-28T08:00:56.697Z,503.1
2023-04-28T08:01:58.860Z,503.3
2023-04-28T08:03:01.290Z,503.3
2023-04-28T08:04:04.434Z,503.3
2023-04-28T08:05:07.673Z,503.2
2023-04-28T08:06:09.883Z,503
2023-04-28T08:07:11.790Z,503.7
2023-04-28T08:08:13.653Z,503.4
2023-04-28T08:09:15.385Z,503.3
2023-04-28T08:10:17.333Z,503.3
2023-04-28T08:11:19.101Z,503.7
2023-04-28T08:12:20.896Z,503.6
2023-04-28T08:13:22.813Z,503.9
2023-04-28T08:14:24.562Z,503.8
2023-04-28T08:15:26.385Z,504
2023-04-28T08:16:28.579Z,503.8
2023-04-28T08:17:30.816Z,504
2023-04-28T08:18:33.178Z,503.6
2023-04-28T08:19:35.011Z,503.7
2023-04-28T08:20:36.861Z,503.4
2023-04-28T08:21:38.720Z,503.6
2023-04-28T08:22:40.681Z,503.3
2023-04-28T08:23:42.611Z,503.6
2023-04-28T08:24:44.476Z,503.6
2023-04-28T08:25:46.316Z,503.8
2023-04-28T08:26:48.174Z,503.8
2023-04-28T08:27:50.032Z,503.8
2023-04-28T08:28:52.497Z,503.9
2023-04-28T08:29:54.331Z,504
2023-04-28T08:30:56.504Z,503.8
2023-04-28T08:31:58.348Z,503.9
2023-04-28T08:33:00.539Z,504.1
2023-04-28T08:34:02.449Z,504.3
2023-04-28T08:35:04.326Z,504.2
2023-04-28T08:36:06.250Z,504.7
2023-04-28T08:37:08.203Z,504.8
2023-04-28T08:38:10.414Z,504.6
2023-04-28T08:39:14.373Z,504.7
2023-04-28T08:40:16.265Z,504.9
2023-04-28T08:41:18.045Z,504.7
2023-04-28T08:42:20.224Z,504.6
2023-04-28T08:43:22.280Z,504.7
2023-04-28T08:44:24.263Z,505.2
2023-04-28T08:45:28.935Z,505.4
2023-04-28T08:46:31.034Z,505.1
2023-04-28T08:47:33.473Z,505.1
2023-04-28T08:48:35.416Z,505
2023-04-28T08:49:37.268Z,505.3
2023-04-28T08:50:39.028Z,504.8
2023-04-28T08:51:42.736Z,505
2023-04-28T08:52:44.620Z,505.1
2023-04-28T08:54:30.240Z,505.3
2023-04-28T08:55:31.961Z,505
2023-04-28T08:56:33.926Z,505.1
2023-04-28T08:57:35.995Z,505.4
2023-04-28T08:58:37.839Z,505.5
2023-04-28T08:59:39.588Z,505.5
2023-04-28T09:00:41.375Z,505.5
2023-04-28T09:01:43.804Z,505.3
2023-04-28T09:02:46.455Z,505.3
2023-04-28T09:03:49.988Z,505.3
2023-04-28T09:04:53.053Z,505.8
2023-04-28T09:05:55.200Z,506.3
2023-04-28T09:06:57.041Z,506.2
2023-04-28T09:07:58.900Z,506.4
2023-04-28T09:09:00.751Z,506.3
2023-04-28T09:10:02.531Z,506.4
2023-04-28T09:11:04.381Z,506.7
2023-04-28T09:12:06.201Z,506.2
2023-04-28T09:13:08.137Z,506.7
2023-04-28T09:14:10.099Z,506.9
2023-04-28T09:15:12.010Z,506.7
2023-04-28T09:16:14.140Z,507.2
2023-04-28T09:17:16.974Z,507.2
2023-04-28T09:18:18.836Z,507.2
2023-04-28T09:19:20.785Z,507.3
2023-04-28T09:20:22.726Z,507.5
2023-04-28T09:21:25.269Z,507.9
2023-04-28T09:22:27.854Z,508.3
2023-04-28T09:23:29.723Z,508.2
2023-04-28T09:24:31.776Z,508.1
2023-04-28T09:25:33.616Z,508.3
2023-04-28T09:26:35.468Z,508.1
2023-04-28T09:27:37.399Z,508.1
2023-04-28T09:28:39.253Z,508.1
2023-04-28T09:29:41.398Z,508.1
2023-04-28T09:30:43.221Z,507.7
2023-04-28T09:31:45.320Z,507.9
2023-04-28T09:32:47.349Z,508
2023-04-28T09:33:49.298Z,508
2023-04-28T09:34:51.037Z,508
2023-04-28T09:35:53.056Z,508.5
2023-04-28T09:36:54.918Z,508.8
2023-04-28T09:37:56.955Z,509.2
2023-04-28T09:38:58.800Z,509
2023-04-28T09:40:00.623Z,509.1
2023-04-28T09:41:02.614Z,509.2
2023-04-28T09:42:04.565Z,509.1
2023-04-28T09:43:22.669Z,509.1
2023-04-28T09:44:24.438Z,509.2
2023-04-28T09:45:26.484Z,509.7
2023-04-28T09:46:29.014Z,509.2
2023-04-28T09:47:31.018Z,509.6
2023-04-28T09:48:33.061Z,510.2
2023-04-28T09:49:35.523Z,510.2
2023-04-28T09:50:37.382Z,510.2
2023-04-28T09:51:39.176Z,510.1
2023-04-28T09:52:41.090Z,510.5
2023-04-28T09:53:42.952Z,510.4
2023-04-28T09:54:44.791Z,510.7
2023-04-28T09:55:47.265Z,510.6
2023-04-28T09:56:49.311Z,510.9
2023-04-28T09:57:51.102Z,510.9
2023-04-28T09:58:52.790Z,510.7
2023-04-28T09:59:54.608Z,511
2023-04-28T10:00:56.719Z,511.1
2023-04-28T10:01:58.565Z,511.3
2023-04-28T10:03:00.854Z,511.6
2023-04-28T10:04:03.584Z,511.8
2023-04-28T10:05:06.411Z,511.9
2023-04-28T10:06:08.436Z,511.7
2023-04-28T10:07:10.256Z,511.8
2023-04-28T10:08:12.114Z,512.4
2023-04-28T10:09:13.958Z,512.4
2023-04-28T10:10:16.164Z,512.8
2023-04-28T10:11:18.068Z,512.5
2023-04-28T10:12:19.902Z,513.1
2023-04-28T10:13:21.765Z,512.7
2023-04-28T10:14:23.590Z,512.8
2023-04-28T10:15:25.362Z,512.7
2023-04-28T10:16:27.696Z,512.8
2023-04-28T10:17:30.322Z,512.7
2023-04-28T10:18:32.144Z,512.8
2023-04-28T10:19:33.985Z,513.4
2023-04-28T10:20:35.863Z,513.6
2023-04-28T10:21:38.295Z,513.5
2023-04-28T10:22:40.058Z,513.4
2023-04-28T10:23:41.713Z,513.4
2023-04-28T10:24:43.473Z,513.4
2023-04-28T10:25:45.421Z,513.7
2023-04-28T10:26:47.457Z,513.3
2023-04-28T10:27:49.301Z,513.1
2023-04-28T10:28:51.452Z,513.5
2023-04-28T10:29:53.202Z,513.9
2023-04-28T10:30:55.282Z,513.7
2023-04-28T10:31:57.631Z,513.3
2023-04-28T10:33:00.254Z,513.2
2023-04-28T10:34:02.256Z,513.6
2023-04-28T10:35:04.118Z,513.3
2023-04-28T10:36:06.055Z,513.3
2023-04-28T10:37:08.045Z,513.4
2023-04-28T10:38:09.872Z,513.7
2023-04-28T10:39:11.833Z,514.1
2023-04-28T10:40:14.226Z,514.1
2023-04-28T10:41:16.232Z,514.4
2023-04-28T10:42:18.073Z,514.5
2023-04-28T10:43:20.437Z,514.4
2023-04-28T10:44:22.303Z,514.5
2023-04-28T10:45:24.139Z,514.7
2023-04-28T10:46:26.417Z,514.9
2023-04-28T10:47:28.468Z,515.2
2023-04-28T10:48:30.430Z,515.2
2023-04-28T10:49:32.263Z,515.5
2023-04-28T10:50:39.869Z,515.7
2023-04-28T10:51:41.710Z,516.2
2023-04-28T10:52:43.632Z,516.1
2023-04-28T10:53:47.965Z,516.4
2023-04-28T10:54:49.811Z,516.1
2023-04-28T10:55:51.633Z,515.9
2023-04-28T10:56:53.427Z,516
2023-04-28T10:57:55.169Z,516
2023-04-28T10:58:57.615Z,516.2
2023-04-28T10:59:59.476Z,516.1
2023-04-28T11:01:02.134Z,516
2023-04-28T11:02:04.356Z,516.3
2023-04-28T11:03:06.758Z,515.8
2023-04-28T11:04:09.795Z,516.1
2023-04-28T11:05:12.891Z,516.1
2023-04-28T11:06:15.300Z,516.5
2023-04-28T11:07:17.223Z,516.8
2023-04-28T11:08:19.204Z,517.1
2023-04-28T11:09:21.115Z,517.1
2023-04-28T11:10:22.975Z,517.4
2023-04-28T11:11:25.345Z,517.2
2023-04-28T11:12:27.181Z,517.5
2023-04-28T11:13:30.598Z,517.3
2023-04-28T11:14:32.881Z,517.8
2023-04-28T11:15:34.785Z,517.9
2023-04-28T11:16:36.948Z,517.8
2023-04-28T11:17:38.904Z,517.8
2023-04-28T11:18:40.652Z,517.9
2023-04-28T11:19:42.623Z,517.8
2023-04-28T11:20:44.333Z,517.7
2023-04-28T11:21:46.316Z,517.7
2023-04-28T11:22:48.096Z,517.8
2023-04-28T11:23:50.102Z,517.8
2023-04-28T11:24:54.533Z,517.9
2023-04-28T11:25:56.370Z,517.9
2023-04-28T11:26:58.317Z,517.8
2023-04-28T11:28:00.258Z,517.8
2023-04-28T11:29:02.244Z,518.2
2023-04-28T11:30:04.030Z,518.1
2023-04-28T11:31:05.940Z,518.4
2023-04-28T11:32:08.494Z,518.9
2023-04-28T11:33:11.895Z,518.6
2023-04-28T11:34:13.718Z,518.7
2023-04-28T11:35:15.597Z,519.2
2023-04-28T11:36:17.425Z,519.5
2023-04-28T11:37:20.055Z,519.8
2023-04-28T11:38:22.037Z,519.9
2023-04-28T11:39:24.497Z,519.7
2023-04-28T11:40:26.443Z,519.5
2023-04-28T11:41:28.299Z,520.1
2023-04-28T11:42:30.159Z,519.8
2023-04-28T11:43:48.192Z,519.8
2023-04-28T11:44:50.054Z,519.7
2023-04-28T11:45:52.108Z,520.2
2023-04-28T11:46:54.194Z,520.2
2023-04-28T11:47:56.558Z,520.3
2023-04-28T11:48:58.416Z,520.3
2023-04-28T11:50:00.342Z,520.2
2023-04-28T11:51:02.004Z,520.5
2023-04-28T11:52:03.700Z,520.6
2023-04-28T11:53:05.634Z,520.3
2023-04-28T11:54:07.512Z,520.4
2023-04-28T11:55:09.242Z,520.9
2023-04-28T11:56:11.016Z,521
2023-04-28T11:57:12.807Z,521.3
2023-04-28T11:58:14.801Z,520.9
2023-04-28T11:59:16.761Z,521.3
2023-04-28T12:00:18.500Z,521.6
2023-04-28T12:01:20.354Z,521.6
2023-04-28T12:02:22.544Z,521.4
2023-04-28T12:03:25.522Z,520.9
2023-04-28T12:04:27.981Z,520.8
2023-04-28T12:05:29.933Z,521.6
2023-04-28T12:06:31.770Z,521.2
2023-04-28T12:07:33.705Z,521.1
2023-04-28T12:08:35.418Z,521.5
2023-04-28T12:09:37.296Z,521.4
2023-04-28T12:10:39.146Z,522
2023-04-28T12:11:41.106Z,522.1
2023-04-28T12:12:53.907Z,521.8
2023-04-28T12:13:55.673Z,522.2
2023-04-28T12:14:57.603Z,522.3
2023-04-28T12:15:59.642Z,522.3
2023-04-28T12:17:01.452Z,522.5
2023-04-28T12:18:03.459Z,523
2023-04-28T12:19:05.794Z,523.5
2023-04-28T12:20:08.356Z,523.6
2023-04-28T12:21:10.352Z,523.5
2023-04-28T12:22:12.128Z,523.3
2023-04-28T12:23:13.944Z,523.3
2023-04-28T12:24:16.402Z,523.8
2023-04-28T12:25:18.262Z,523.6
2023-04-28T12:26:20.228Z,523.7
2023-04-28T12:27:22.295Z,523.6
2023-04-28T12:28:24.121Z,523.5
2023-04-28T12:29:25.967Z,523.5
2023-04-28T12:30:27.857Z,523.6
2023-04-28T12:31:29.913Z,523.7
2023-04-28T12:32:32.046Z,523.9
2023-04-28T12:33:33.934Z,523.8
2023-04-28T12:34:36.144Z,524.2
2023-04-28T12:35:37.946Z,524.3
2023-04-28T12:36:39.843Z,524.1
2023-04-28T12:37:41.829Z,524.3
2023-04-28T12:38:43.633Z,524.4
2023-04-28T12:39:47.105Z,524.3
2023-04-28T12:40:49.068Z,524.6
2023-04-28T12:41:51.021Z,524.3
2023-04-28T12:42:52.893Z,524.7
2023-04-28T12:43:54.727Z,524.9
2023-04-28T12:44:56.518Z,524.9
2023-04-28T12:45:58.573Z,525
2023-04-28T12:47:00.423Z,525
2023-04-28T12:48:02.488Z,525.5
2023-04-28T12:49:04.392Z,525.3
2023-04-28T12:50:06.501Z,525.7
2023-04-28T12:51:08.620Z,525.9
2023-04-28T12:52:10.455Z,526.1
2023-04-28T12:53:12.197Z,526.4
2023-04-28T12:54:14.055Z,526.4
2023-04-28T12:55:16.003Z,525.9
2023-04-28T12:56:17.853Z,526.2
2023-04-28T12:57:19.637Z,526.6
2023-04-28T12:58:21.661Z,526.7
2023-04-28T12:59:23.520Z,526.6
2023-04-28T13:00:25.582Z,526.7
2023-04-28T13:01:27.550Z,526.8
2023-04-28T13:02:29.846Z,527
2023-04-28T13:03:32.512Z,526.8
2023-04-28T13:04:35.558Z,526.9
2023-04-28T13:05:37.409Z,527.2
2023-04-28T13:06:39.221Z,526.8
2023-04-28T13:07:40.974Z,527.8
2023-04-28T13:08:42.842Z,527.5
2023-04-28T13:09:46.405Z,527.6
2023-04-28T13:10:48.479Z,527.3
2023-04-28T13:11:50.315Z,527.6
2023-04-28T13:12:52.172Z,527.9
2023-04-28T13:13:54.017Z,527.7
2023-04-28T13:14:55.864Z,527.9
2023-04-28T13:15:57.752Z,527.7
2023-04-28T13:16:59.486Z,527
2023-04-28T13:18:01.792Z,527.4
2023-04-28T13:19:03.693Z,527.6
2023-04-28T13:20:05.920Z,527.5
2023-04-28T13:21:07.785Z,528
2023-04-28T13:22:09.602Z,528.5
2023-04-28T13:23:11.407Z,528.4
2023-04-28T13:24:13.257Z,528.5
2023-04-28T13:25:14.996Z,528.7
2023-04-28T13:26:16.604Z,528.2